Aeroporto :
LOGIN :

Iscrizione | Disclaimer

   EN    FR    IT 

 










Sommario :    VFR   VFR Marginale   IFR   IFR Intensivo   IFR Molto Intensivo
Visibilità : 
Base nubi : 
>= 8 km
>= 3000ft
5 / 8 km
1000 / 3000 ft
1500m / 5 km
500 / 1000 ft
800 / 1500m
200 / 500 ft
< 800m
< 200 ft
Simboli :   Temporali  Nebbia  Neve Forte  Precipitazioni Forti  Vento > 20 kt
SIGMETs :   Varie  Temporali  Ghiacco  Turbolenza  Onda orograficha  Ceneri Vulcaniche







- Altitudine del aeroporto : 1260 ft
- Codice IATA : LDE
- Carte del aeroporto


LFBT - Tarbes / Ossun

ULTIMO METAR :
  • 261500Z AUTO 25005KT 210V310 9999 FEW029 SCT054 BKN064 19/11 Q1021 NOSIG

METARs OBSOLETI :
  • 261430Z AUTO 29005KT 250V340 9999 FEW039 BKN066 19/12 Q1021 NOSIG
  • 261400Z AUTO 33007KT 290V350 9999 SCT030 BKN038 BKN045 17/11 Q1021 TEMPO BKN008
  • 261330Z AUTO 30005KT 270V330 9999 FEW031 BKN040 BKN049 17/11 Q1021 TEMPO BKN008
  • 261300Z AUTO 31006KT 250V340 9999 FEW028 SCT042 OVC066 17/11 Q1021 TEMPO BKN008
  • 261230Z AUTO 31007KT 270V340 9999 BKN025 BKN035 BKN045 17/11 Q1022 TEMPO BKN008

TAF TAF LFBT
Valido dal 26 a 12 ore il 27 a 12 ore UTC


261100Z 2612/2712 30010KT 9999 SCT015 BKN030
PROB30
TEMPO 2612/2615 BKN008
BECMG 2623/2701 BKN005
TEMPO 2704/2712 3000 -RADZ OVC002
Nessun NOTAM noto per questo aeroporto.



MetMap, La meteo Aeronautica in un colpo d'occhio ! - Copyright ORBIFLY Dicembre 2007 - Disclaimer

ORBIFLY MET'MAP TEAM :

Programmazione e sviluppo : Alexandra Zaïnal
Concezione e sviluppo : Baudouin d'Aumeries
Co-Programmazione e sviluppo : Marc-Olivier Méhu
Supporto tecnico e logistico : Manuel Goepfert
Aiuto per la traduzione : Arnaldo La Scala

Contatto : metmap@orbifly.com




FONTI E CREDITI :

   NOAA